Inmocean — ZCXX2 — position and weather

sailwx.info

Track history (hours):
 
Tides and Currents Weather Stations Pressure Air Temp Water Temp Dewpoint Dewpoint Depression Visibility Wind Speed Wind Dir Waves Ship Positions

Inmocean

Last reported at 2016-Jul-23 16:27 UTC. Time now 2016-Aug-30 01:20 UTC.
Position N 42°25' E 018°28'.
Warning: this ship's position is 37 days out of date.

Type: Sailing vessel. MMSI: 319120000.

Date/timePositionNaut miles runAvg speedWind from/ knotsBaromVisibWave heightAir tempDewpointWater temp
2016-Jul-23 16:27N 42°25' E 018°28'6 7.0
2016-Jul-23 15:33N 42°26' E 018°37'3 3.4
2016-Jul-23 14:32N 42°26' E 018°41'0 0.0
2016-Jul-23 13:32N 42°26' E 018°41'1 0.5
2016-Jul-23 12:32N 42°26' E 018°41'0 0.0
2016-Jul-23 11:32N 42°26' E 018°41'0 0.0
2016-Jul-23 10:32N 42°26' E 018°41'0 0.5
2016-Jul-23 09:32N 42°26' E 018°41'0 0.3
2016-Jul-23 08:33N 42°26' E 018°41'1 0.7
2016-Jul-23 07:34N 42°25' E 018°42'0 0.0
2016-Jul-23 06:31N 42°25' E 018°42'0 0.0
2016-Jul-23 04:34N 42°25' E 018°42'0 0.0
2016-Jul-23 03:34N 42°25' E 018°42'0 0.0
2016-Jul-23 02:34N 42°25' E 018°42'0 0.0
2016-Jul-23 01:34N 42°25' E 018°42'0 0.0
2016-Jul-23 00:34N 42°25' E 018°42'0 0.0
2016-Jul-22 23:34N 42°25' E 018°42'0 0.0
2016-Jul-22 22:34N 42°25' E 018°42'0 0.0
2016-Jul-22 21:31N 42°25' E 018°42'1 0.8
2016-Jul-22 20:33N 42°26' E 018°41'5 4.5
2016-Jul-22 19:33N 42°29' E 018°46'0 0.0
2016-Jul-22 18:33N 42°29' E 018°46'0 0.0
2016-Jul-22 17:33N 42°29' E 018°46'0 0.0
2016-Jul-22 16:24N 42°29' E 018°46'0 0.0
2016-Jul-22 15:33N 42°29' E 018°46'0 0.0
2016-Jul-22 13:33N 42°29' E 018°46'2 2.0
2016-Jul-22 12:34N 42°27' E 018°46'1 0.7
2016-Jul-22 11:33N 42°26' E 018°46'0 0.0
2016-Jul-22 10:33N 42°26' E 018°46'0 0.0
2016-Jul-22 09:33N 42°26' E 018°46'0 0.0
2016-Jul-22 08:33N 42°26' E 018°46'0 0.0
2016-Jul-22 07:33N 42°26' E 018°46'0 0.1
2016-Jul-22 05:33N 42°26' E 018°46'0 0.0
2016-Jul-22 04:33N 42°26' E 018°46'0 0.0
2016-Jul-22 03:33N 42°26' E 018°46'0 0.0
2016-Jul-22 02:33N 42°26' E 018°46'0 0.0
2016-Jul-22 01:33N 42°26' E 018°46'0 0.0
2016-Jul-22 00:33N 42°26' E 018°46'0 0.0
2016-Jul-21 23:33N 42°26' E 018°46'0 0.0
2016-Jul-21 22:30N 42°26' E 018°46'0 0.0
2016-Jul-21 21:33N 42°26' E 018°46'0 0.0
2016-Jul-21 20:33N 42°26' E 018°46'0 0.0
2016-Jul-21 19:33N 42°26' E 018°46'0 0.3
2016-Jul-21 18:33N 42°26' E 018°46'7 7.3
2016-Jul-21 17:33N 42°26' E 018°36'5 4.6
2016-Jul-21 16:33N 42°22' E 018°40'1 0.7
2016-Jul-21 15:33N 42°23' E 018°39'0 0.0
2016-Jul-21 14:33N 42°23' E 018°39'0 0.0
2016-Jul-21 13:33N 42°23' E 018°39'0 0.0
2016-Jul-21 12:30N 42°23' E 018°39'0 0.0
2016-Jul-21 11:15N 42°23' E 018°39'0 0.0
2016-Jul-21 10:33N 42°23' E 018°39'0 0.0
2016-Jul-21 09:27N 42°23' E 018°39'5 5.2
2016-Jul-21 08:33N 42°19' E 018°42'7 0.2
2016-Jul-19 10:22N 42°16' E 018°51'5 5.0
2016-Jul-19 09:27N 42°16' E 018°45'1010.7
2016-Jul-19 08:32N 42°22' E 018°35'6 5.8
2016-Jul-19 07:33N 42°26' E 018°41'0 0.2
2016-Jul-19 04:31N 42°26' E 018°41'0 0.0
2016-Jul-19 03:31N 42°26' E 018°41'0 0.0
2016-Jul-19 02:31N 42°26' E 018°41'0 0.0
2016-Jul-19 01:31N 42°26' E 018°41'0 0.0
2016-Jul-19 00:31N 42°26' E 018°41'0 0.0
2016-Jul-18 23:31N 42°26' E 018°41'0 0.0
2016-Jul-18 22:31N 42°26' E 018°41'0 0.0
2016-Jul-18 21:31N 42°26' E 018°41'0 0.0
2016-Jul-18 20:25N 42°26' E 018°41'0 0.0
2016-Jul-18 19:31N 42°26' E 018°41'0 0.0
2016-Jul-18 18:31N 42°26' E 018°41'0 0.0
2016-Jul-18 17:31N 42°26' E 018°41'0 0.0
2016-Jul-18 16:31N 42°26' E 018°41'0 0.0
2016-Jul-18 15:31N 42°26' E 018°41'0 0.0
2016-Jul-18 14:31N 42°26' E 018°41'0 0.0
2016-Jul-18 13:31N 42°26' E 018°41'0 0.0
2016-Jul-18 12:31N 42°26' E 018°41'0 0.0
2016-Jul-18 11:31N 42°26' E 018°41'0 0.0
2016-Jul-18 10:31N 42°26' E 018°41'0 0.0
2016-Jul-18 09:31N 42°26' E 018°41'0 0.0
2016-Jul-18 08:31N 42°26' E 018°41'0 0.0
2016-Jul-18 07:31N 42°26' E 018°41'  
2016-Jul-15 16:04N 42°26' E 018°41'0 0.0
2016-Jul-15 15:31N 42°26' E 018°41'0 0.0
2016-Jul-15 14:31N 42°26' E 018°41'0 0.0
2016-Jul-15 13:31N 42°26' E 018°41'0 0.0
2016-Jul-15 12:31N 42°26' E 018°41'0 0.0
2016-Jul-15 11:31N 42°26' E 018°41'0 0.0
2016-Jul-15 10:31N 42°26' E 018°41'0 0.0
2016-Jul-15 09:31N 42°26' E 018°41'0 0.0
2016-Jul-15 08:31N 42°26' E 018°41'0 0.0
2016-Jul-15 07:31N 42°26' E 018°41'0 0.0
2016-Jul-15 06:31N 42°26' E 018°41'0 0.0
2016-Jul-15 01:28N 42°26' E 018°41'0 0.0
2016-Jul-15 00:25N 42°26' E 018°41'0 0.0
2016-Jul-14 23:31N 42°26' E 018°41'0 0.0
2016-Jul-14 22:31N 42°26' E 018°41'0 0.0
2016-Jul-14 21:31N 42°26' E 018°41'0 0.0
2016-Jul-14 20:31N 42°26' E 018°41'0 0.0
2016-Jul-14 19:31N 42°26' E 018°41'0 0.0
2016-Jul-14 18:31N 42°26' E 018°41'0 0.0
2016-Jul-14 17:31N 42°26' E 018°41'0 0.0
2016-Jul-14 16:31N 42°26' E 018°41'0 0.0
2016-Jul-14 15:31N 42°26' E 018°41'0 0.0
2016-Jul-14 14:31N 42°26' E 018°41'0 0.0
2016-Jul-14 13:31N 42°26' E 018°41'0 0.0
2016-Jul-14 12:28N 42°26' E 018°41'0 0.0
2016-Jul-14 11:31N 42°26' E 018°41'0 0.0
2016-Jul-14 10:31N 42°26' E 018°41'0 0.0
2016-Jul-14 09:31N 42°26' E 018°41'0 0.0
2016-Jul-14 08:31N 42°26' E 018°41'0 0.0
2016-Jul-14 07:31N 42°26' E 018°41'0 0.1
2016-Jul-14 06:33N 42°26' E 018°41'0 0.2
2016-Jul-14 05:33N 42°26' E 018°41'0 0.0
2016-Jul-14 04:33N 42°26' E 018°41'0 0.0
2016-Jul-14 03:33N 42°26' E 018°41'0 0.0
2016-Jul-14 02:27N 42°26' E 018°41'0 0.0
2016-Jul-14 01:33N 42°26' E 018°41'0 0.0
2016-Jul-14 00:33N 42°26' E 018°41'0 0.0
2016-Jul-13 23:33N 42°26' E 018°41'0 0.2
2016-Jul-13 22:33N 42°26' E 018°41'7 6.8
2016-Jul-13 21:28N 42°23' E 018°32'  
Track history (hours):
 
Tides and Currents Weather Stations Pressure Air Temp Water Temp Dewpoint Dewpoint Depression Visibility Wind Speed Wind Dir Waves Ship Positions

Inmocean

Last reported at 2016-Jul-23 16:27 UTC. Time now 2016-Aug-30 01:20 UTC.
Position N 42°25' E 018°28'.
Warning: this ship's position is 37 days out of date.

Type: Sailing vessel. MMSI: 319120000.

Date/timePositionNaut miles runAvg speedWind from/ knotsBaromVisibWave heightAir tempDewpointWater temp
2016-Jul-23 16:27N 42°25' E 018°28'6 7.0
2016-Jul-23 15:33N 42°26' E 018°37'3 3.4
2016-Jul-23 14:32N 42°26' E 018°41'0 0.0
2016-Jul-23 13:32N 42°26' E 018°41'1 0.5
2016-Jul-23 12:32N 42°26' E 018°41'0 0.0
2016-Jul-23 11:32N 42°26' E 018°41'0 0.0
2016-Jul-23 10:32N 42°26' E 018°41'0 0.5
2016-Jul-23 09:32N 42°26' E 018°41'0 0.3
2016-Jul-23 08:33N 42°26' E 018°41'1 0.7
2016-Jul-23 07:34N 42°25' E 018°42'0 0.0
2016-Jul-23 06:31N 42°25' E 018°42'0 0.0
2016-Jul-23 04:34N 42°25' E 018°42'0 0.0
2016-Jul-23 03:34N 42°25' E 018°42'0 0.0
2016-Jul-23 02:34N 42°25' E 018°42'0 0.0
2016-Jul-23 01:34N 42°25' E 018°42'0 0.0
2016-Jul-23 00:34N 42°25' E 018°42'0 0.0
2016-Jul-22 23:34N 42°25' E 018°42'0 0.0
2016-Jul-22 22:34N 42°25' E 018°42'0 0.0
2016-Jul-22 21:31N 42°25' E 018°42'1 0.8
2016-Jul-22 20:33N 42°26' E 018°41'5 4.5
2016-Jul-22 19:33N 42°29' E 018°46'0 0.0
2016-Jul-22 18:33N 42°29' E 018°46'0 0.0
2016-Jul-22 17:33N 42°29' E 018°46'0 0.0
2016-Jul-22 16:24N 42°29' E 018°46'0 0.0
2016-Jul-22 15:33N 42°29' E 018°46'0 0.0
2016-Jul-22 13:33N 42°29' E 018°46'2 2.0
2016-Jul-22 12:34N 42°27' E 018°46'1 0.7
2016-Jul-22 11:33N 42°26' E 018°46'0 0.0
2016-Jul-22 10:33N 42°26' E 018°46'0 0.0
2016-Jul-22 09:33N 42°26' E 018°46'0 0.0
2016-Jul-22 08:33N 42°26' E 018°46'0 0.0
2016-Jul-22 07:33N 42°26' E 018°46'0 0.1
2016-Jul-22 05:33N 42°26' E 018°46'0 0.0
2016-Jul-22 04:33N 42°26' E 018°46'0 0.0
2016-Jul-22 03:33N 42°26' E 018°46'0 0.0
2016-Jul-22 02:33N 42°26' E 018°46'0 0.0
2016-Jul-22 01:33N 42°26' E 018°46'0 0.0
2016-Jul-22 00:33N 42°26' E 018°46'0 0.0
2016-Jul-21 23:33N 42°26' E 018°46'0 0.0
2016-Jul-21 22:30N 42°26' E 018°46'0 0.0
2016-Jul-21 21:33N 42°26' E 018°46'0 0.0
2016-Jul-21 20:33N 42°26' E 018°46'0 0.0
2016-Jul-21 19:33N 42°26' E 018°46'0 0.3
2016-Jul-21 18:33N 42°26' E 018°46'7 7.3
2016-Jul-21 17:33N 42°26' E 018°36'5 4.6
2016-Jul-21 16:33N 42°22' E 018°40'1 0.7
2016-Jul-21 15:33N 42°23' E 018°39'0 0.0
2016-Jul-21 14:33N 42°23' E 018°39'0 0.0
2016-Jul-21 13:33N 42°23' E 018°39'0 0.0
2016-Jul-21 12:30N 42°23' E 018°39'0 0.0
2016-Jul-21 11:15N 42°23' E 018°39'0 0.0
2016-Jul-21 10:33N 42°23' E 018°39'0 0.0
2016-Jul-21 09:27N 42°23' E 018°39'5 5.2
2016-Jul-21 08:33N 42°19' E 018°42'7 0.2
2016-Jul-19 10:22N 42°16' E 018°51'5 5.0
2016-Jul-19 09:27N 42°16' E 018°45'1010.7
2016-Jul-19 08:32N 42°22' E 018°35'6 5.8
2016-Jul-19 07:33N 42°26' E 018°41'0 0.2
2016-Jul-19 04:31N 42°26' E 018°41'0 0.0
2016-Jul-19 03:31N 42°26' E 018°41'0 0.0
2016-Jul-19 02:31N 42°26' E 018°41'0 0.0
2016-Jul-19 01:31N 42°26' E 018°41'0 0.0
2016-Jul-19 00:31N 42°26' E 018°41'0 0.0
2016-Jul-18 23:31N 42°26' E 018°41'0 0.0
2016-Jul-18 22:31N 42°26' E 018°41'0 0.0
2016-Jul-18 21:31N 42°26' E 018°41'0 0.0
2016-Jul-18 20:25N 42°26' E 018°41'0 0.0
2016-Jul-18 19:31N 42°26' E 018°41'0 0.0
2016-Jul-18 18:31N 42°26' E 018°41'0 0.0
2016-Jul-18 17:31N 42°26' E 018°41'0 0.0
2016-Jul-18 16:31N 42°26' E 018°41'0 0.0
2016-Jul-18 15:31N 42°26' E 018°41'0 0.0
2016-Jul-18 14:31N 42°26' E 018°41'0 0.0
2016-Jul-18 13:31N 42°26' E 018°41'0 0.0
2016-Jul-18 12:31N 42°26' E 018°41'0 0.0
2016-Jul-18 11:31N 42°26' E 018°41'0 0.0
2016-Jul-18 10:31N 42°26' E 018°41'0 0.0
2016-Jul-18 09:31N 42°26' E 018°41'0 0.0
2016-Jul-18 08:31N 42°26' E 018°41'0 0.0
2016-Jul-18 07:31N 42°26' E 018°41'  
2016-Jul-15 16:04N 42°26' E 018°41'0 0.0
2016-Jul-15 15:31N 42°26' E 018°41'0 0.0
2016-Jul-15 14:31N 42°26' E 018°41'0 0.0
2016-Jul-15 13:31N 42°26' E 018°41'0 0.0
2016-Jul-15 12:31N 42°26' E 018°41'0 0.0
2016-Jul-15 11:31N 42°26' E 018°41'0 0.0
2016-Jul-15 10:31N 42°26' E 018°41'0 0.0
2016-Jul-15 09:31N 42°26' E 018°41'0 0.0
2016-Jul-15 08:31N 42°26' E 018°41'0 0.0
2016-Jul-15 07:31N 42°26' E 018°41'0 0.0
2016-Jul-15 06:31N 42°26' E 018°41'0 0.0
2016-Jul-15 01:28N 42°26' E 018°41'0 0.0
2016-Jul-15 00:25N 42°26' E 018°41'0 0.0
2016-Jul-14 23:31N 42°26' E 018°41'0 0.0
2016-Jul-14 22:31N 42°26' E 018°41'0 0.0
2016-Jul-14 21:31N 42°26' E 018°41'0 0.0
2016-Jul-14 20:31N 42°26' E 018°41'0 0.0
2016-Jul-14 19:31N 42°26' E 018°41'0 0.0
2016-Jul-14 18:31N 42°26' E 018°41'0 0.0
2016-Jul-14 17:31N 42°26' E 018°41'0 0.0
2016-Jul-14 16:31N 42°26' E 018°41'0 0.0
2016-Jul-14 15:31N 42°26' E 018°41'0 0.0
2016-Jul-14 14:31N 42°26' E 018°41'0 0.0
2016-Jul-14 13:31N 42°26' E 018°41'0 0.0
2016-Jul-14 12:28N 42°26' E 018°41'0 0.0
2016-Jul-14 11:31N 42°26' E 018°41'0 0.0
2016-Jul-14 10:31N 42°26' E 018°41'0 0.0
2016-Jul-14 09:31N 42°26' E 018°41'0 0.0
2016-Jul-14 08:31N 42°26' E 018°41'0 0.0
2016-Jul-14 07:31N 42°26' E 018°41'0 0.1
2016-Jul-14 06:33N 42°26' E 018°41'0 0.2
2016-Jul-14 05:33N 42°26' E 018°41'0 0.0
2016-Jul-14 04:33N 42°26' E 018°41'0 0.0
2016-Jul-14 03:33N 42°26' E 018°41'0 0.0
2016-Jul-14 02:27N 42°26' E 018°41'0 0.0
2016-Jul-14 01:33N 42°26' E 018°41'0 0.0
2016-Jul-14 00:33N 42°26' E 018°41'0 0.0
2016-Jul-13 23:33N 42°26' E 018°41'0 0.2
2016-Jul-13 22:33N 42°26' E 018°41'7 6.8
2016-Jul-13 21:28N 42°23' E 018°32'  

Dump ship's entire track history